KDPA/DPA METAR and TAF weather

Enter ICAO airport designator
Station Type Date Time Source
KDPA METAR 2019/06/18 16:52 UTC NOAA

KDPA 181652Z 07006KT 10SM SCT020 24/15 A2995 RMK AO2 SLP138 T02390150


Station Type Date Time Source
KDPA Decoded METAR 2019/06/18 16:52 UTC NOAA

CHICAGO/WEST CH DUPAGE, IL, United States (KDPA) 41-54N 88-15W 230M
Jun 18, 2019 - 12:52 PM EDT / 2019.06.18 1652 UTC
Wind: from the ENE (070 degrees) at 7 MPH (6 KT):0
Visibility: 10 mile(s):0
Sky conditions: partly cloudy
Temperature: 75.0 F (23.9 C)
Dew Point: 59.0 F (15.0 C)
Relative Humidity: 57%
Pressure (altimeter): 29.95 in. Hg (1014 hPa)
ob: KDPA 181652Z 07006KT 10SM SCT020 24/15 A2995 RMK AO2 SLP138 T02390150
cycle: 17

Station Type Date Time Source
KDPA TAF 2019/06/18 15:42 UTC NOAA

TAF
AMD KDPA 181440Z 1815/1912 VRB04KT P6SM FEW007 SCT150
FM182000 09008KT P6SM SCT040 SCT120
FM190100 12004KT P6SM FEW035 SCT100
FM190500 VRB03KT 6SM BR OVC100
FM190800 VRB03KT 1 1/2SM BR OVC050
TEMPO 1909/1912 1/2SM FG

Example: see airport list